Sacre-Coeur, Canada
Current Conditions -  °F | °C
As of 4:00 PM on Thursday 23 Oct 2014 (Local Time) from CYYY Reporting Station
Broken Clouds Broken Clouds  
Wind Chill: 32°   Ceiling: 24000
Heat Index: 41°   Visibility: 15mi
Dew Point: 36°   Wind: 21mph
Humidity: 81%   Direction: 50°NE
Pressure: 30.18"   Gusts: 31mph
Location:  48.43°N, 68.58°W
Report Text: CYYY 232000Z 05018G27KT 15SM FEW140 BKN240 05/02 A3018 RMK AS1CI4 SLP221
Loading
Personal Weather Stations






























Interactive Weather Map
Tropical Storm Tracking
New forecast layout! Learn more

10-Day Weather Forecast

Advertisements
Track Severe Weather on mobile